ěÝzenÝ letovÚho provozu ╚eskÚ republiky
Letiste: LKLN Aktualizace: 18.05.2022 00:20:31  UTC
 METAR LKLN 18.05. 00:30 ...
METAR LKLN 180030Z AUTO 00000KT 3600 BR NCD 11/10 Q1024=